sensor_id;sensor_type;location;lat;lon;timestamp;temperature;humidity
6373;DHT22;3219;51.362;7.074;2022-08-16T19:23:53;25.50;87.40
6373;DHT22;3219;51.362;7.074;2022-08-16T19:26:23;25.70;87.70
6373;DHT22;3219;51.362;7.074;2022-08-16T19:28:50;25.60;87.90
6373;DHT22;3219;51.362;7.074;2022-08-16T19:31:19;25.60;87.90
6373;DHT22;3219;51.362;7.074;2022-08-16T19:33:47;25.60;86.90
6373;DHT22;3219;51.362;7.074;2022-08-16T19:36:14;25.60;86.70
6373;DHT22;3219;51.362;7.074;2022-08-16T19:38:41;25.60;86.80
6373;DHT22;3219;51.362;7.074;2022-08-16T19:41:08;25.50;86.50
6373;DHT22;3219;51.362;7.074;2022-08-16T19:43:37;25.50;86.30
6373;DHT22;3219;51.362;7.074;2022-08-16T19:46:04;25.50;87.30
6373;DHT22;3219;51.362;7.074;2022-08-16T19:48:31;25.50;87.50
6373;DHT22;3219;51.362;7.074;2022-08-16T19:50:58;25.50;87.80
6373;DHT22;3219;51.362;7.074;2022-08-16T19:53:25;25.50;88.10
6373;DHT22;3219;51.362;7.074;2022-08-16T19:55:52;25.50;88.00
6373;DHT22;3219;51.362;7.074;2022-08-16T19:58:19;25.40;87.80
6373;DHT22;3219;51.362;7.074;2022-08-16T20:00:48;25.40;87.80
6373;DHT22;3219;51.362;7.074;2022-08-16T20:03:17;25.40;87.80
6373;DHT22;3219;51.362;7.074;2022-08-16T20:05:46;25.30;87.80
6373;DHT22;3219;51.362;7.074;2022-08-16T20:08:14;25.30;88.10
6373;DHT22;3219;51.362;7.074;2022-08-16T20:10:42;25.30;88.10
6373;DHT22;3219;51.362;7.074;2022-08-16T20:13:11;25.30;87.70
6373;DHT22;3219;51.362;7.074;2022-08-16T20:15:39;25.30;87.50
6373;DHT22;3219;51.362;7.074;2022-08-16T20:18:07;25.30;87.90
6373;DHT22;3219;51.362;7.074;2022-08-16T20:20:34;25.20;87.90
6373;DHT22;3219;51.362;7.074;2022-08-16T20:23:01;25.20;88.30
6373;DHT22;3219;51.362;7.074;2022-08-16T20:25:30;25.10;88.50
6373;DHT22;3219;51.362;7.074;2022-08-16T20:27:58;25.10;88.20
6373;DHT22;3219;51.362;7.074;2022-08-16T20:30:25;25.10;87.90
6373;DHT22;3219;51.362;7.074;2022-08-16T20:32:53;25.10;88.00
6373;DHT22;3219;51.362;7.074;2022-08-16T20:35:23;25.10;88.10
6373;DHT22;3219;51.362;7.074;2022-08-16T20:37:50;25.00;87.90
6373;DHT22;3219;51.362;7.074;2022-08-16T20:40:21;25.00;87.90
6373;DHT22;3219;51.362;7.074;2022-08-16T20:42:58;25.00;87.60
6373;DHT22;3219;51.362;7.074;2022-08-16T20:45:26;25.00;87.60
6373;DHT22;3219;51.362;7.074;2022-08-16T20:47:52;24.90;87.60
6373;DHT22;3219;51.362;7.074;2022-08-16T20:50:21;24.90;87.60
6373;DHT22;3219;51.362;7.074;2022-08-16T20:52:48;24.90;87.70
6373;DHT22;3219;51.362;7.074;2022-08-16T20:55:15;24.80;87.80
6373;DHT22;3219;51.362;7.074;2022-08-16T20:57:42;24.80;87.80
6373;DHT22;3219;51.362;7.074;2022-08-16T21:00:10;24.80;88.00
6373;DHT22;3219;51.362;7.074;2022-08-16T21:02:37;24.80;88.00
6373;DHT22;3219;51.362;7.074;2022-08-16T21:05:05;24.80;87.80
6373;DHT22;3219;51.362;7.074;2022-08-16T21:07:33;24.80;87.60
6373;DHT22;3219;51.362;7.074;2022-08-16T21:10:00;24.80;87.40
6373;DHT22;3219;51.362;7.074;2022-08-16T21:12:26;24.80;87.20
6373;DHT22;3219;51.362;7.074;2022-08-16T21:14:54;24.80;86.70
6373;DHT22;3219;51.362;7.074;2022-08-16T21:17:21;24.80;86.60
6373;DHT22;3219;51.362;7.074;2022-08-16T21:19:48;24.90;86.60
6373;DHT22;3219;51.362;7.074;2022-08-16T21:22:16;24.80;86.30
6373;DHT22;3219;51.362;7.074;2022-08-16T21:24:45;24.80;86.60
6373;DHT22;3219;51.362;7.074;2022-08-16T21:27:12;24.80;86.60
6373;DHT22;3219;51.362;7.074;2022-08-16T21:29:39;24.80;86.70
6373;DHT22;3219;51.362;7.074;2022-08-16T21:32:09;24.80;87.10
6373;DHT22;3219;51.362;7.074;2022-08-16T21:34:36;24.80;86.70
6373;DHT22;3219;51.362;7.074;2022-08-16T21:37:04;24.80;86.60
6373;DHT22;3219;51.362;7.074;2022-08-16T21:39:30;24.80;86.70
6373;DHT22;3219;51.362;7.074;2022-08-16T21:41:59;24.80;86.70
6373;DHT22;3219;51.362;7.074;2022-08-16T21:44:25;24.80;86.40
6373;DHT22;3219;51.362;7.074;2022-08-16T21:46:52;24.80;86.40
6373;DHT22;3219;51.362;7.074;2022-08-16T21:49:19;24.80;86.10
6373;DHT22;3219;51.362;7.074;2022-08-16T21:51:45;24.70;86.10
6373;DHT22;3219;51.362;7.074;2022-08-16T21:54:12;24.70;86.40
6373;DHT22;3219;51.362;7.074;2022-08-16T21:56:39;24.80;86.60
6373;DHT22;3219;51.362;7.074;2022-08-16T21:59:07;24.70;86.60
6373;DHT22;3219;51.362;7.074;2022-08-16T22:01:36;24.80;86.60
6373;DHT22;3219;51.362;7.074;2022-08-16T22:04:03;24.80;86.30
6373;DHT22;3219;51.362;7.074;2022-08-16T22:06:30;24.80;86.50
6373;DHT22;3219;51.362;7.074;2022-08-16T22:08:57;24.80;86.70
6373;DHT22;3219;51.362;7.074;2022-08-16T22:11:24;24.80;86.70
6373;DHT22;3219;51.362;7.074;2022-08-16T22:13:53;24.80;86.70
6373;DHT22;3219;51.362;7.074;2022-08-16T22:16:21;24.80;86.70
6373;DHT22;3219;51.362;7.074;2022-08-16T22:18:48;24.80;86.90
6373;DHT22;3219;51.362;7.074;2022-08-16T22:21:15;24.80;86.80
6373;DHT22;3219;51.362;7.074;2022-08-16T22:23:41;24.70;86.90
6373;DHT22;3219;51.362;7.074;2022-08-16T22:26:08;24.70;87.10
6373;DHT22;3219;51.362;7.074;2022-08-16T22:28:35;24.60;87.20
6373;DHT22;3219;51.362;7.074;2022-08-16T22:31:02;24.60;87.60
6373;DHT22;3219;51.362;7.074;2022-08-16T22:33:30;24.50;87.80
6373;DHT22;3219;51.362;7.074;2022-08-16T22:35:58;24.50;88.10
6373;DHT22;3219;51.362;7.074;2022-08-16T22:38:26;24.50;88.10
6373;DHT22;3219;51.362;7.074;2022-08-16T22:40:53;24.50;88.30
6373;DHT22;3219;51.362;7.074;2022-08-16T22:43:21;24.50;88.30
6373;DHT22;3219;51.362;7.074;2022-08-16T22:45:48;24.50;88.30
6373;DHT22;3219;51.362;7.074;2022-08-16T22:48:15;24.40;88.20
6373;DHT22;3219;51.362;7.074;2022-08-16T22:50:43;24.40;88.30
6373;DHT22;3219;51.362;7.074;2022-08-16T22:53:11;24.30;88.40
6373;DHT22;3219;51.362;7.074;2022-08-16T22:55:39;24.30;88.50
6373;DHT22;3219;51.362;7.074;2022-08-16T22:58:07;24.20;88.80
6373;DHT22;3219;51.362;7.074;2022-08-16T23:00:35;24.20;88.80
6373;DHT22;3219;51.362;7.074;2022-08-16T23:03:05;24.20;89.00
6373;DHT22;3219;51.362;7.074;2022-08-16T23:05:35;24.10;89.00
6373;DHT22;3219;51.362;7.074;2022-08-16T23:08:05;24.10;89.20
6373;DHT22;3219;51.362;7.074;2022-08-16T23:10:33;24.00;89.50
6373;DHT22;3219;51.362;7.074;2022-08-16T23:13:02;24.00;89.80
6373;DHT22;3219;51.362;7.074;2022-08-16T23:15:30;23.90;90.10
6373;DHT22;3219;51.362;7.074;2022-08-16T23:17:57;23.80;90.30
6373;DHT22;3219;51.362;7.074;2022-08-16T23:20:27;23.70;90.30
6373;DHT22;3219;51.362;7.074;2022-08-16T23:22:55;23.70;90.40
6373;DHT22;3219;51.362;7.074;2022-08-16T23:25:34;23.60;90.40
6373;DHT22;3219;51.362;7.074;2022-08-16T23:28:02;23.50;90.40
6373;DHT22;3219;51.362;7.074;2022-08-16T23:30:29;23.50;90.60
6373;DHT22;3219;51.362;7.074;2022-08-16T23:32:59;23.50;90.40
6373;DHT22;3219;51.362;7.074;2022-08-16T23:35:28;23.40;90.40
6373;DHT22;3219;51.362;7.074;2022-08-16T23:37:56;23.40;90.40
6373;DHT22;3219;51.362;7.074;2022-08-16T23:40:24;23.40;90.50
6373;DHT22;3219;51.362;7.074;2022-08-16T23:42:53;23.40;90.40
6373;DHT22;3219;51.362;7.074;2022-08-16T23:45:20;23.40;90.40
6373;DHT22;3219;51.362;7.074;2022-08-16T23:47:47;23.40;90.50
6373;DHT22;3219;51.362;7.074;2022-08-16T23:50:14;23.40;90.60
6373;DHT22;3219;51.362;7.074;2022-08-16T23:52:56;23.30;90.60
6373;DHT22;3219;51.362;7.074;2022-08-16T23:55:25;23.30;90.80
6373;DHT22;3219;51.362;7.074;2022-08-16T23:57:52;23.30;90.90
